sensor_id;sensor_type;location;lat;lon;timestamp;P1;durP1;ratioP1;P2;durP2;ratioP2
83646;SDS011;73609;50.134;14.376;2023-11-21T00:00:05;4.4;;;1.9;;
83646;SDS011;73609;50.134;14.376;2023-11-21T00:02:05;3.8;;;1.7;;
83646;SDS011;73609;50.134;14.376;2023-11-21T00:04:05;4.6;;;2.0;;
83646;SDS011;73609;50.134;14.376;2023-11-21T00:06:05;5.1;;;2.0;;
83646;SDS011;73609;50.134;14.376;2023-11-21T00:08:05;5.4;;;1.9;;
83646;SDS011;73609;50.134;14.376;2023-11-21T00:10:05;4.1;;;1.9;;
83646;SDS011;73609;50.134;14.376;2023-11-21T00:12:05;4.7;;;2.0;;
83646;SDS011;73609;50.134;14.376;2023-11-21T00:14:05;6.0;;;1.9;;
83646;SDS011;73609;50.134;14.376;2023-11-21T00:16:05;3.6;;;1.6;;
83646;SDS011;73609;50.134;14.376;2023-11-21T00:18:05;3.2;;;1.6;;
83646;SDS011;73609;50.134;14.376;2023-11-21T00:20:05;5.0;;;1.9;;
83646;SDS011;73609;50.134;14.376;2023-11-21T00:22:05;3.9;;;1.8;;
83646;SDS011;73609;50.134;14.376;2023-11-21T00:24:05;5.8;;;2.0;;
83646;SDS011;73609;50.134;14.376;2023-11-21T00:26:05;5.1;;;1.7;;
83646;SDS011;73609;50.134;14.376;2023-11-21T00:28:05;5.6;;;2.2;;
83646;SDS011;73609;50.134;14.376;2023-11-21T00:30:05;4.9;;;1.8;;
83646;SDS011;73609;50.134;14.376;2023-11-21T00:32:05;4.6;;;1.8;;
83646;SDS011;73609;50.134;14.376;2023-11-21T00:34:05;3.9;;;1.6;;
83646;SDS011;73609;50.134;14.376;2023-11-21T00:36:05;4.6;;;1.8;;
83646;SDS011;73609;50.134;14.376;2023-11-21T00:38:05;4.9;;;1.7;;
83646;SDS011;73609;50.134;14.376;2023-11-21T00:40:05;5.6;;;1.9;;
83646;SDS011;73609;50.134;14.376;2023-11-21T00:42:05;5.3;;;1.8;;
83646;SDS011;73609;50.134;14.376;2023-11-21T00:44:05;4.3;;;1.9;;
83646;SDS011;73609;50.134;14.376;2023-11-21T00:46:05;3.9;;;1.6;;
83646;SDS011;73609;50.134;14.376;2023-11-21T00:48:05;4.2;;;1.8;;
83646;SDS011;73609;50.134;14.376;2023-11-21T00:50:05;5.2;;;2.2;;
83646;SDS011;73609;50.134;14.376;2023-11-21T00:52:06;5.0;;;1.7;;
83646;SDS011;73609;50.134;14.376;2023-11-21T00:54:05;6.2;;;2.0;;
83646;SDS011;73609;50.134;14.376;2023-11-21T00:56:05;5.3;;;1.7;;
83646;SDS011;73609;50.134;14.376;2023-11-21T00:58:05;4.3;;;1.7;;
83646;SDS011;73609;50.134;14.376;2023-11-21T01:00:05;5.3;;;1.7;;
83646;SDS011;73609;50.134;14.376;2023-11-21T01:04:05;5.4;;;1.9;;
83646;SDS011;73609;50.134;14.376;2023-11-21T01:06:05;3.9;;;1.6;;
83646;SDS011;73609;50.134;14.376;2023-11-21T01:08:05;3.7;;;1.7;;
83646;SDS011;73609;50.134;14.376;2023-11-21T01:10:05;5.2;;;1.8;;
83646;SDS011;73609;50.134;14.376;2023-11-21T01:12:05;5.3;;;2.0;;
83646;SDS011;73609;50.134;14.376;2023-11-21T01:14:05;4.7;;;1.8;;
83646;SDS011;73609;50.134;14.376;2023-11-21T01:16:05;4.1;;;1.8;;
83646;SDS011;73609;50.134;14.376;2023-11-21T01:18:05;7.7;;;2.1;;
83646;SDS011;73609;50.134;14.376;2023-11-21T01:20:06;6.7;;;2.1;;
83646;SDS011;73609;50.134;14.376;2023-11-21T01:22:05;5.6;;;1.9;;
83646;SDS011;73609;50.134;14.376;2023-11-21T01:24:05;5.4;;;1.8;;
83646;SDS011;73609;50.134;14.376;2023-11-21T01:26:05;5.7;;;1.8;;
83646;SDS011;73609;50.134;14.376;2023-11-21T01:28:05;4.1;;;1.8;;
83646;SDS011;73609;50.134;14.376;2023-11-21T01:30:05;4.2;;;1.8;;
83646;SDS011;73609;50.134;14.376;2023-11-21T01:32:05;4.1;;;1.8;;
83646;SDS011;73609;50.134;14.376;2023-11-21T01:34:05;5.1;;;1.9;;
83646;SDS011;73609;50.134;14.376;2023-11-21T01:36:05;5.2;;;1.8;;
83646;SDS011;73609;50.134;14.376;2023-11-21T01:38:05;6.4;;;2.1;;
83646;SDS011;73609;50.134;14.376;2023-11-21T01:40:05;6.6;;;2.6;;
83646;SDS011;73609;50.134;14.376;2023-11-21T01:42:05;4.9;;;2.2;;
83646;SDS011;73609;50.134;14.376;2023-11-21T01:44:05;5.5;;;2.1;;
83646;SDS011;73609;50.134;14.376;2023-11-21T01:46:05;5.0;;;2.3;;
83646;SDS011;73609;50.134;14.376;2023-11-21T01:48:05;6.1;;;1.7;;
83646;SDS011;73609;50.134;14.376;2023-11-21T01:50:06;8.5;;;2.4;;
83646;SDS011;73609;50.134;14.376;2023-11-21T01:52:05;3.7;;;1.7;;
83646;SDS011;73609;50.134;14.376;2023-11-21T01:54:05;5.7;;;1.9;;
83646;SDS011;73609;50.134;14.376;2023-11-21T01:56:05;4.0;;;1.6;;
83646;SDS011;73609;50.134;14.376;2023-11-21T01:58:05;6.6;;;1.9;;
83646;SDS011;73609;50.134;14.376;2023-11-21T02:00:05;4.1;;;1.7;;
83646;SDS011;73609;50.134;14.376;2023-11-21T02:02:05;4.2;;;1.8;;
83646;SDS011;73609;50.134;14.376;2023-11-21T02:04:05;3.9;;;1.5;;
83646;SDS011;73609;50.134;14.376;2023-11-21T02:06:05;5.4;;;2.1;;
83646;SDS011;73609;50.134;14.376;2023-11-21T02:08:05;3.9;;;1.7;;
83646;SDS011;73609;50.134;14.376;2023-11-21T02:10:06;5.5;;;1.9;;
83646;SDS011;73609;50.134;14.376;2023-11-21T02:12:05;6.8;;;1.9;;
83646;SDS011;73609;50.134;14.376;2023-11-21T02:14:05;4.7;;;1.8;;
83646;SDS011;73609;50.134;14.376;2023-11-21T02:16:05;4.4;;;1.5;;
83646;SDS011;73609;50.134;14.376;2023-11-21T02:18:05;4.6;;;1.6;;
83646;SDS011;73609;50.134;14.376;2023-11-21T02:20:05;4.2;;;1.6;;
83646;SDS011;73609;50.134;14.376;2023-11-21T02:22:05;4.6;;;1.9;;
83646;SDS011;73609;50.134;14.376;2023-11-21T02:24:05;5.7;;;1.7;;
83646;SDS011;73609;50.134;14.376;2023-11-21T02:26:05;3.4;;;1.6;;
83646;SDS011;73609;50.134;14.376;2023-11-21T02:28:05;4.1;;;1.7;;
83646;SDS011;73609;50.134;14.376;2023-11-21T02:30:05;3.9;;;1.8;;
83646;SDS011;73609;50.134;14.376;2023-11-21T02:32:06;4.5;;;1.7;;
83646;SDS011;73609;50.134;14.376;2023-11-21T02:34:05;5.8;;;1.9;;
83646;SDS011;73609;50.134;14.376;2023-11-21T02:36:05;4.2;;;1.8;;
83646;SDS011;73609;50.134;14.376;2023-11-21T02:38:05;4.7;;;1.8;;
83646;SDS011;73609;50.134;14.376;2023-11-21T02:40:05;5.8;;;1.8;;
83646;SDS011;73609;50.134;14.376;2023-11-21T02:42:05;6.2;;;2.0;;
83646;SDS011;73609;50.134;14.376;2023-11-21T02:44:06;5.4;;;2.1;;
83646;SDS011;73609;50.134;14.376;2023-11-21T02:46:05;5.7;;;1.7;;
83646;SDS011;73609;50.134;14.376;2023-11-21T02:48:05;4.3;;;1.8;;
83646;SDS011;73609;50.134;14.376;2023-11-21T02:50:05;4.5;;;1.8;;
83646;SDS011;73609;50.134;14.376;2023-11-21T02:52:05;4.4;;;2.0;;
83646;SDS011;73609;50.134;14.376;2023-11-21T02:54:05;4.9;;;1.9;;
83646;SDS011;73609;50.134;14.376;2023-11-21T02:56:05;5.1;;;1.7;;
83646;SDS011;73609;50.134;14.376;2023-11-21T02:58:05;5.3;;;2.0;;
83646;SDS011;73609;50.134;14.376;2023-11-21T03:00:05;4.7;;;1.9;;
83646;SDS011;73609;50.134;14.376;2023-11-21T03:02:05;5.3;;;1.8;;
83646;SDS011;73609;50.134;14.376;2023-11-21T03:04:05;4.7;;;1.6;;
83646;SDS011;73609;50.134;14.376;2023-11-21T03:06:05;6.0;;;2.1;;
83646;SDS011;73609;50.134;14.376;2023-11-21T03:08:05;4.5;;;1.8;;
83646;SDS011;73609;50.134;14.376;2023-11-21T03:10:06;5.9;;;2.1;;
83646;SDS011;73609;50.134;14.376;2023-11-21T03:12:05;4.6;;;2.0;;
83646;SDS011;73609;50.134;14.376;2023-11-21T03:14:05;5.2;;;1.9;;
83646;SDS011;73609;50.134;14.376;2023-11-21T03:16:05;5.8;;;2.3;;
83646;SDS011;73609;50.134;14.376;2023-11-21T03:18:05;5.1;;;2.5;;
83646;SDS011;73609;50.134;14.376;2023-11-21T03:20:06;5.0;;;2.5;;
83646;SDS011;73609;50.134;14.376;2023-11-21T03:22:05;4.1;;;2.1;;
83646;SDS011;73609;50.134;14.376;2023-11-21T03:24:05;4.8;;;1.8;;
83646;SDS011;73609;50.134;14.376;2023-11-21T03:26:05;3.4;;;1.6;;
83646;SDS011;73609;50.134;14.376;2023-11-21T03:28:05;4.0;;;1.7;;
83646;SDS011;73609;50.134;14.376;2023-11-21T03:30:07;5.2;;;1.9;;
83646;SDS011;73609;50.134;14.376;2023-11-21T03:32:05;5.3;;;1.9;;
83646;SDS011;73609;50.134;14.376;2023-11-21T03:34:05;4.5;;;1.8;;
83646;SDS011;73609;50.134;14.376;2023-11-21T03:36:05;5.1;;;1.8;;
83646;SDS011;73609;50.134;14.376;2023-11-21T03:38:05;3.9;;;1.8;;
83646;SDS011;73609;50.134;14.376;2023-11-21T03:40:05;3.9;;;1.8;;
83646;SDS011;73609;50.134;14.376;2023-11-21T03:42:05;4.3;;;1.7;;
83646;SDS011;73609;50.134;14.376;2023-11-21T03:44:05;5.9;;;1.8;;
83646;SDS011;73609;50.134;14.376;2023-11-21T03:46:05;6.0;;;2.0;;
83646;SDS011;73609;50.134;14.376;2023-11-21T03:48:05;6.2;;;2.0;;
83646;SDS011;73609;50.134;14.376;2023-11-21T03:50:05;5.0;;;2.0;;
83646;SDS011;73609;50.134;14.376;2023-11-21T03:52:05;5.1;;;1.9;;
83646;SDS011;73609;50.134;14.376;2023-11-21T03:54:05;6.5;;;1.8;;
83646;SDS011;73609;50.134;14.376;2023-11-21T03:56:05;4.3;;;1.7;;
83646;SDS011;73609;50.134;14.376;2023-11-21T03:58:05;4.0;;;1.8;;
83646;SDS011;73609;50.134;14.376;2023-11-21T04:00:05;4.7;;;1.7;;
83646;SDS011;73609;50.134;14.376;2023-11-21T04:02:05;5.0;;;1.7;;
83646;SDS011;73609;50.134;14.376;2023-11-21T04:04:05;3.6;;;1.8;;
83646;SDS011;73609;50.134;14.376;2023-11-21T04:06:05;5.9;;;2.2;;
83646;SDS011;73609;50.134;14.376;2023-11-21T04:08:05;5.0;;;2.0;;
83646;SDS011;73609;50.134;14.376;2023-11-21T04:10:06;5.0;;;2.3;;
83646;SDS011;73609;50.134;14.376;2023-11-21T04:12:05;5.0;;;3.0;;
83646;SDS011;73609;50.134;14.376;2023-11-21T04:14:05;3.6;;;1.8;;
83646;SDS011;73609;50.134;14.376;2023-11-21T04:16:05;4.9;;;1.8;;
83646;SDS011;73609;50.134;14.376;2023-11-21T04:18:05;3.8;;;1.5;;
83646;SDS011;73609;50.134;14.376;2023-11-21T04:20:05;5.7;;;1.8;;
83646;SDS011;73609;50.134;14.376;2023-11-21T04:22:05;4.2;;;1.6;;
83646;SDS011;73609;50.134;14.376;2023-11-21T04:24:05;3.9;;;1.7;;
83646;SDS011;73609;50.134;14.376;2023-11-21T04:26:05;4.9;;;1.7;;
83646;SDS011;73609;50.134;14.376;2023-11-21T04:28:05;4.0;;;1.7;;
83646;SDS011;73609;50.134;14.376;2023-11-21T04:30:05;4.5;;;1.7;;
83646;SDS011;73609;50.134;14.376;2023-11-21T04:32:05;5.1;;;1.9;;
83646;SDS011;73609;50.134;14.376;2023-11-21T04:34:05;4.2;;;2.0;;
83646;SDS011;73609;50.134;14.376;2023-11-21T04:36:05;4.2;;;2.0;;
83646;SDS011;73609;50.134;14.376;2023-11-21T04:38:05;4.4;;;1.9;;
83646;SDS011;73609;50.134;14.376;2023-11-21T04:40:05;3.8;;;2.1;;
83646;SDS011;73609;50.134;14.376;2023-11-21T04:42:05;5.0;;;2.1;;
83646;SDS011;73609;50.134;14.376;2023-11-21T04:44:06;2.8;;;1.5;;
83646;SDS011;73609;50.134;14.376;2023-11-21T04:46:05;4.1;;;1.6;;
83646;SDS011;73609;50.134;14.376;2023-11-21T04:48:05;6.3;;;1.9;;
83646;SDS011;73609;50.134;14.376;2023-11-21T04:50:05;3.8;;;1.6;;
83646;SDS011;73609;50.134;14.376;2023-11-21T04:52:05;2.6;;;1.5;;
83646;SDS011;73609;50.134;14.376;2023-11-21T04:54:05;3.8;;;2.0;;
83646;SDS011;73609;50.134;14.376;2023-11-21T04:56:05;4.0;;;2.0;;
83646;SDS011;73609;50.134;14.376;2023-11-21T04:58:05;4.0;;;1.8;;
83646;SDS011;73609;50.134;14.376;2023-11-21T05:00:05;4.9;;;1.7;;
83646;SDS011;73609;50.134;14.376;2023-11-21T05:02:05;4.7;;;2.1;;
83646;SDS011;73609;50.134;14.376;2023-11-21T05:04:05;6.7;;;2.9;;
83646;SDS011;73609;50.134;14.376;2023-11-21T05:06:05;4.7;;;2.9;;
83646;SDS011;73609;50.134;14.376;2023-11-21T05:08:05;4.6;;;1.9;;
83646;SDS011;73609;50.134;14.376;2023-11-21T05:10:05;4.0;;;1.7;;
83646;SDS011;73609;50.134;14.376;2023-11-21T05:12:05;4.6;;;1.7;;
83646;SDS011;73609;50.134;14.376;2023-11-21T05:14:05;5.1;;;1.7;;
83646;SDS011;73609;50.134;14.376;2023-11-21T05:16:05;4.5;;;1.8;;
83646;SDS011;73609;50.134;14.376;2023-11-21T05:18:05;4.9;;;2.0;;
83646;SDS011;73609;50.134;14.376;2023-11-21T05:20:05;4.5;;;1.7;;
83646;SDS011;73609;50.134;14.376;2023-11-21T05:22:05;5.5;;;1.6;;
83646;SDS011;73609;50.134;14.376;2023-11-21T05:24:05;4.0;;;1.8;;
83646;SDS011;73609;50.134;14.376;2023-11-21T05:26:05;6.2;;;1.8;;
83646;SDS011;73609;50.134;14.376;2023-11-21T05:28:05;3.1;;;1.7;;
83646;SDS011;73609;50.134;14.376;2023-11-21T05:30:05;4.6;;;1.7;;
83646;SDS011;73609;50.134;14.376;2023-11-21T05:32:05;4.1;;;1.8;;
83646;SDS011;73609;50.134;14.376;2023-11-21T05:34:05;4.0;;;1.9;;
83646;SDS011;73609;50.134;14.376;2023-11-21T05:36:06;5.5;;;1.8;;
83646;SDS011;73609;50.134;14.376;2023-11-21T05:38:05;3.8;;;1.6;;
83646;SDS011;73609;50.134;14.376;2023-11-21T05:40:06;5.0;;;2.0;;
83646;SDS011;73609;50.134;14.376;2023-11-21T05:42:05;4.1;;;1.7;;
83646;SDS011;73609;50.134;14.376;2023-11-21T05:44:05;5.2;;;2.0;;
83646;SDS011;73609;50.134;14.376;2023-11-21T05:46:05;4.6;;;2.1;;
83646;SDS011;73609;50.134;14.376;2023-11-21T05:48:05;3.6;;;1.9;;
83646;SDS011;73609;50.134;14.376;2023-11-21T05:50:05;5.1;;;2.0;;
83646;SDS011;73609;50.134;14.376;2023-11-21T05:52:05;3.8;;;1.8;;
83646;SDS011;73609;50.134;14.376;2023-11-21T05:54:05;5.1;;;1.9;;
83646;SDS011;73609;50.134;14.376;2023-11-21T05:56:05;5.1;;;2.0;;
83646;SDS011;73609;50.134;14.376;2023-11-21T05:58:05;3.9;;;1.7;;
83646;SDS011;73609;50.134;14.376;2023-11-21T06:00:05;3.6;;;1.7;;
83646;SDS011;73609;50.134;14.376;2023-11-21T06:02:05;4.7;;;1.7;;
83646;SDS011;73609;50.134;14.376;2023-11-21T06:04:05;3.5;;;1.6;;
83646;SDS011;73609;50.134;14.376;2023-11-21T06:06:05;4.2;;;1.9;;
83646;SDS011;73609;50.134;14.376;2023-11-21T06:08:05;5.3;;;1.8;;
83646;SDS011;73609;50.134;14.376;2023-11-21T06:10:05;5.1;;;1.7;;
83646;SDS011;73609;50.134;14.376;2023-11-21T06:12:05;4.2;;;1.7;;
83646;SDS011;73609;50.134;14.376;2023-11-21T06:14:05;4.2;;;2.1;;
83646;SDS011;73609;50.134;14.376;2023-11-21T06:16:05;3.8;;;1.8;;
83646;SDS011;73609;50.134;14.376;2023-11-21T06:18:05;3.9;;;1.7;;
83646;SDS011;73609;50.134;14.376;2023-11-21T06:20:06;4.3;;;1.8;;
83646;SDS011;73609;50.134;14.376;2023-11-21T06:22:05;4.4;;;1.7;;
83646;SDS011;73609;50.134;14.376;2023-11-21T06:24:05;4.3;;;1.8;;
83646;SDS011;73609;50.134;14.376;2023-11-21T06:26:05;4.7;;;1.7;;
83646;SDS011;73609;50.134;14.376;2023-11-21T06:28:05;4.1;;;1.7;;
83646;SDS011;73609;50.134;14.376;2023-11-21T06:30:05;4.0;;;1.9;;
83646;SDS011;73609;50.134;14.376;2023-11-21T06:32:05;4.3;;;1.9;;
83646;SDS011;73609;50.134;14.376;2023-11-21T06:34:05;4.8;;;1.7;;
83646;SDS011;73609;50.134;14.376;2023-11-21T06:36:05;4.5;;;1.9;;
83646;SDS011;73609;50.134;14.376;2023-11-21T06:38:05;4.9;;;2.0;;
83646;SDS011;73609;50.134;14.376;2023-11-21T06:40:05;3.3;;;1.7;;
83646;SDS011;73609;50.134;14.376;2023-11-21T06:42:05;6.5;;;2.1;;
83646;SDS011;73609;50.134;14.376;2023-11-21T06:44:05;4.6;;;1.8;;
83646;SDS011;73609;50.134;14.376;2023-11-21T06:46:05;4.9;;;2.0;;
83646;SDS011;73609;50.134;14.376;2023-11-21T06:48:05;3.8;;;1.9;;
83646;SDS011;73609;50.134;14.376;2023-11-21T06:50:05;6.6;;;2.2;;
83646;SDS011;73609;50.134;14.376;2023-11-21T06:52:05;3.8;;;1.9;;
83646;SDS011;73609;50.134;14.376;2023-11-21T06:54:05;4.6;;;1.9;;
83646;SDS011;73609;50.134;14.376;2023-11-21T06:56:14;4.1;;;1.9;;
83646;SDS011;73609;50.134;14.376;2023-11-21T06:58:05;6.1;;;2.5;;
83646;SDS011;73609;50.134;14.376;2023-11-21T07:00:05;5.7;;;2.8;;
83646;SDS011;73609;50.134;14.376;2023-11-21T07:02:05;8.4;;;2.5;;
83646;SDS011;73609;50.134;14.376;2023-11-21T07:04:05;5.2;;;2.3;;
83646;SDS011;73609;50.134;14.376;2023-11-21T07:06:05;5.0;;;2.6;;
83646;SDS011;73609;50.134;14.376;2023-11-21T07:08:05;5.5;;;2.6;;
83646;SDS011;73609;50.134;14.376;2023-11-21T07:10:05;8.5;;;3.1;;
83646;SDS011;73609;50.134;14.376;2023-11-21T07:12:05;5.3;;;2.8;;
83646;SDS011;73609;50.134;14.376;2023-11-21T07:14:05;6.4;;;2.7;;
83646;SDS011;73609;50.134;14.376;2023-11-21T07:16:05;6.5;;;2.6;;
83646;SDS011;73609;50.134;14.376;2023-11-21T07:18:05;6.4;;;2.5;;
83646;SDS011;73609;50.134;14.376;2023-11-21T07:20:05;5.1;;;2.2;;
83646;SDS011;73609;50.134;14.376;2023-11-21T07:22:05;7.0;;;2.7;;
83646;SDS011;73609;50.134;14.376;2023-11-21T07:24:05;6.1;;;2.3;;
83646;SDS011;73609;50.134;14.376;2023-11-21T07:26:05;6.0;;;2.2;;
83646;SDS011;73609;50.134;14.376;2023-11-21T07:28:05;4.9;;;2.5;;
83646;SDS011;73609;50.134;14.376;2023-11-21T07:30:05;5.5;;;2.5;;
83646;SDS011;73609;50.134;14.376;2023-11-21T07:32:05;6.2;;;2.5;;
83646;SDS011;73609;50.134;14.376;2023-11-21T07:34:05;5.7;;;2.7;;
83646;SDS011;73609;50.134;14.376;2023-11-21T07:36:05;6.6;;;2.8;;
83646;SDS011;73609;50.134;14.376;2023-11-21T07:38:05;5.7;;;2.4;;
83646;SDS011;73609;50.134;14.376;2023-11-21T07:40:05;6.5;;;2.5;;
83646;SDS011;73609;50.134;14.376;2023-11-21T07:42:05;6.6;;;2.3;;
83646;SDS011;73609;50.134;14.376;2023-11-21T07:44:05;4.5;;;2.2;;
83646;SDS011;73609;50.134;14.376;2023-11-21T07:46:05;5.5;;;2.7;;
83646;SDS011;73609;50.134;14.376;2023-11-21T07:48:05;5.0;;;2.7;;
83646;SDS011;73609;50.134;14.376;2023-11-21T07:50:05;6.1;;;2.5;;
83646;SDS011;73609;50.134;14.376;2023-11-21T07:52:05;6.0;;;2.3;;
83646;SDS011;73609;50.134;14.376;2023-11-21T07:54:05;5.8;;;2.2;;
83646;SDS011;73609;50.134;14.376;2023-11-21T07:56:06;6.5;;;2.5;;
83646;SDS011;73609;50.134;14.376;2023-11-21T07:58:05;7.3;;;2.8;;
83646;SDS011;73609;50.134;14.376;2023-11-21T08:00:06;4.2;;;2.4;;
83646;SDS011;73609;50.134;14.376;2023-11-21T08:02:05;7.5;;;2.4;;
83646;SDS011;73609;50.134;14.376;2023-11-21T08:04:05;6.7;;;2.3;;
83646;SDS011;73609;50.134;14.376;2023-11-21T08:06:05;8.1;;;2.2;;
83646;SDS011;73609;50.134;14.376;2023-11-21T08:08:05;7.9;;;2.0;;
83646;SDS011;73609;50.134;14.376;2023-11-21T08:10:05;8.9;;;2.4;;
83646;SDS011;73609;50.134;14.376;2023-11-21T08:12:05;5.2;;;2.2;;
83646;SDS011;73609;50.134;14.376;2023-11-21T08:14:05;6.7;;;2.2;;
83646;SDS011;73609;50.134;14.376;2023-11-21T08:16:06;7.9;;;2.5;;
83646;SDS011;73609;50.134;14.376;2023-11-21T08:18:05;6.6;;;2.0;;
83646;SDS011;73609;50.134;14.376;2023-11-21T08:20:05;6.7;;;2.3;;
83646;SDS011;73609;50.134;14.376;2023-11-21T08:22:05;5.3;;;2.0;;
83646;SDS011;73609;50.134;14.376;2023-11-21T08:24:06;5.8;;;2.1;;
83646;SDS011;73609;50.134;14.376;2023-11-21T08:26:05;6.1;;;2.1;;
83646;SDS011;73609;50.134;14.376;2023-11-21T08:28:05;6.5;;;2.5;;
83646;SDS011;73609;50.134;14.376;2023-11-21T08:30:05;5.8;;;2.5;;
83646;SDS011;73609;50.134;14.376;2023-11-21T08:32:05;5.7;;;2.1;;
83646;SDS011;73609;50.134;14.376;2023-11-21T08:34:05;7.4;;;2.4;;
83646;SDS011;73609;50.134;14.376;2023-11-21T08:36:07;8.0;;;2.4;;
83646;SDS011;73609;50.134;14.376;2023-11-21T08:38:05;7.9;;;2.5;;
83646;SDS011;73609;50.134;14.376;2023-11-21T08:40:05;6.1;;;2.4;;
83646;SDS011;73609;50.134;14.376;2023-11-21T08:42:05;5.7;;;2.3;;
83646;SDS011;73609;50.134;14.376;2023-11-21T08:44:05;5.6;;;2.3;;
83646;SDS011;73609;50.134;14.376;2023-11-21T08:46:06;6.3;;;2.4;;
83646;SDS011;73609;50.134;14.376;2023-11-21T08:48:05;5.6;;;2.3;;
83646;SDS011;73609;50.134;14.376;2023-11-21T08:50:06;5.3;;;2.1;;
83646;SDS011;73609;50.134;14.376;2023-11-21T08:52:05;4.2;;;2.0;;
83646;SDS011;73609;50.134;14.376;2023-11-21T08:54:05;6.0;;;2.0;;
83646;SDS011;73609;50.134;14.376;2023-11-21T08:56:05;4.4;;;2.2;;
83646;SDS011;73609;50.134;14.376;2023-11-21T08:58:05;5.9;;;2.3;;
83646;SDS011;73609;50.134;14.376;2023-11-21T09:00:06;5.7;;;2.3;;
83646;SDS011;73609;50.134;14.376;2023-11-21T09:02:05;5.5;;;2.1;;
83646;SDS011;73609;50.134;14.376;2023-11-21T09:04:05;4.2;;;2.2;;
83646;SDS011;73609;50.134;14.376;2023-11-21T09:06:05;7.4;;;2.5;;
83646;SDS011;73609;50.134;14.376;2023-11-21T09:08:05;5.2;;;2.1;;
83646;SDS011;73609;50.134;14.376;2023-11-21T09:10:05;5.4;;;2.3;;
83646;SDS011;73609;50.134;14.376;2023-11-21T09:12:05;3.7;;;2.2;;
83646;SDS011;73609;50.134;14.376;2023-11-21T09:14:05;5.6;;;2.6;;
83646;SDS011;73609;50.134;14.376;2023-11-21T09:16:05;4.8;;;2.1;;
83646;SDS011;73609;50.134;14.376;2023-11-21T09:18:05;5.8;;;2.3;;
83646;SDS011;73609;50.134;14.376;2023-11-21T09:20:05;4.9;;;2.4;;
83646;SDS011;73609;50.134;14.376;2023-11-21T09:22:05;4.6;;;2.2;;
83646;SDS011;73609;50.134;14.376;2023-11-21T09:24:05;5.6;;;2.1;;
83646;SDS011;73609;50.134;14.376;2023-11-21T09:26:05;6.6;;;2.4;;
83646;SDS011;73609;50.134;14.376;2023-11-21T09:28:05;6.0;;;2.4;;
83646;SDS011;73609;50.134;14.376;2023-11-21T09:30:06;5.7;;;2.5;;
83646;SDS011;73609;50.134;14.376;2023-11-21T09:32:05;4.1;;;2.5;;
83646;SDS011;73609;50.134;14.376;2023-11-21T09:34:05;5.2;;;2.7;;
83646;SDS011;73609;50.134;14.376;2023-11-21T09:36:05;5.5;;;2.5;;
83646;SDS011;73609;50.134;14.376;2023-11-21T09:38:05;5.1;;;2.6;;
83646;SDS011;73609;50.134;14.376;2023-11-21T09:40:06;5.6;;;2.3;;
83646;SDS011;73609;50.134;14.376;2023-11-21T09:42:10;5.4;;;2.3;;
83646;SDS011;73609;50.134;14.376;2023-11-21T09:44:05;5.2;;;2.4;;
83646;SDS011;73609;50.134;14.376;2023-11-21T09:46:05;6.3;;;2.2;;
83646;SDS011;73609;50.134;14.376;2023-11-21T09:48:05;5.2;;;2.2;;
83646;SDS011;73609;50.134;14.376;2023-11-21T09:50:05;6.9;;;2.5;;
83646;SDS011;73609;50.134;14.376;2023-11-21T09:52:05;4.6;;;2.4;;
83646;SDS011;73609;50.134;14.376;2023-11-21T09:54:05;9.3;;;2.7;;
83646;SDS011;73609;50.134;14.376;2023-11-21T09:56:05;5.8;;;2.3;;
83646;SDS011;73609;50.134;14.376;2023-11-21T09:58:05;5.9;;;2.5;;
83646;SDS011;73609;50.134;14.376;2023-11-21T10:00:05;5.6;;;2.3;;
83646;SDS011;73609;50.134;14.376;2023-11-21T10:02:05;5.2;;;2.1;;
83646;SDS011;73609;50.134;14.376;2023-11-21T10:04:05;5.1;;;2.2;;
83646;SDS011;73609;50.134;14.376;2023-11-21T10:06:05;6.5;;;2.3;;
83646;SDS011;73609;50.134;14.376;2023-11-21T10:08:09;5.3;;;2.3;;
83646;SDS011;73609;50.134;14.376;2023-11-21T10:10:05;5.7;;;2.1;;
83646;SDS011;73609;50.134;14.376;2023-11-21T10:12:05;4.5;;;2.0;;
83646;SDS011;73609;50.134;14.376;2023-11-21T10:14:05;5.5;;;2.1;;
83646;SDS011;73609;50.134;14.376;2023-11-21T10:16:05;5.9;;;2.4;;
83646;SDS011;73609;50.134;14.376;2023-11-21T10:18:06;5.5;;;2.3;;
83646;SDS011;73609;50.134;14.376;2023-11-21T10:20:06;7.7;;;2.1;;
83646;SDS011;73609;50.134;14.376;2023-11-21T10:22:05;5.7;;;2.2;;
83646;SDS011;73609;50.134;14.376;2023-11-21T10:24:05;6.3;;;2.2;;
83646;SDS011;73609;50.134;14.376;2023-11-21T10:26:05;6.4;;;2.2;;
83646;SDS011;73609;50.134;14.376;2023-11-21T10:28:05;4.0;;;2.2;;
83646;SDS011;73609;50.134;14.376;2023-11-21T10:30:06;5.1;;;2.3;;
83646;SDS011;73609;50.134;14.376;2023-11-21T10:32:05;5.3;;;2.3;;
83646;SDS011;73609;50.134;14.376;2023-11-21T10:34:13;4.3;;;1.9;;
83646;SDS011;73609;50.134;14.376;2023-11-21T10:36:05;4.6;;;1.9;;
83646;SDS011;73609;50.134;14.376;2023-11-21T10:38:05;4.1;;;1.8;;
83646;SDS011;73609;50.134;14.376;2023-11-21T10:40:07;4.4;;;1.5;;
83646;SDS011;73609;50.134;14.376;2023-11-21T10:42:07;6.2;;;1.9;;
83646;SDS011;73609;50.134;14.376;2023-11-21T10:44:05;5.0;;;2.0;;
83646;SDS011;73609;50.134;14.376;2023-11-21T10:46:05;4.2;;;1.8;;
83646;SDS011;73609;50.134;14.376;2023-11-21T10:48:06;6.3;;;2.0;;
83646;SDS011;73609;50.134;14.376;2023-11-21T10:50:05;7.0;;;2.2;;
83646;SDS011;73609;50.134;14.376;2023-11-21T10:52:05;7.1;;;2.4;;
83646;SDS011;73609;50.134;14.376;2023-11-21T10:54:05;5.5;;;2.2;;
83646;SDS011;73609;50.134;14.376;2023-11-21T10:56:05;5.5;;;1.9;;
83646;SDS011;73609;50.134;14.376;2023-11-21T10:58:05;3.3;;;1.9;;
83646;SDS011;73609;50.134;14.376;2023-11-21T11:00:05;4.6;;;2.0;;
83646;SDS011;73609;50.134;14.376;2023-11-21T11:02:10;3.0;;;1.7;;
83646;SDS011;73609;50.134;14.376;2023-11-21T11:04:05;4.8;;;1.8;;
83646;SDS011;73609;50.134;14.376;2023-11-21T11:06:05;4.1;;;1.9;;
83646;SDS011;73609;50.134;14.376;2023-11-21T11:08:05;5.3;;;1.9;;
83646;SDS011;73609;50.134;14.376;2023-11-21T11:10:05;6.6;;;2.1;;
83646;SDS011;73609;50.134;14.376;2023-11-21T11:12:05;5.4;;;1.7;;
83646;SDS011;73609;50.134;14.376;2023-11-21T11:14:05;5.5;;;2.1;;
83646;SDS011;73609;50.134;14.376;2023-11-21T11:16:05;4.3;;;2.1;;
83646;SDS011;73609;50.134;14.376;2023-11-21T11:18:05;5.1;;;1.8;;
83646;SDS011;73609;50.134;14.376;2023-11-21T11:20:05;5.5;;;1.6;;
83646;SDS011;73609;50.134;14.376;2023-11-21T11:24:12;6.1;;;1.9;;
83646;SDS011;73609;50.134;14.376;2023-11-21T11:28:14;4.3;;;1.7;;
83646;SDS011;73609;50.134;14.376;2023-11-21T11:32:08;4.7;;;2.1;;
83646;SDS011;73609;50.134;14.376;2023-11-21T11:36:06;5.7;;;2.1;;
83646;SDS011;73609;50.134;14.376;2023-11-21T11:38:05;3.6;;;1.9;;
83646;SDS011;73609;50.134;14.376;2023-11-21T11:40:06;4.8;;;1.8;;
83646;SDS011;73609;50.134;14.376;2023-11-21T11:42:07;4.9;;;2.0;;
83646;SDS011;73609;50.134;14.376;2023-11-21T11:44:08;4.8;;;2.0;;
83646;SDS011;73609;50.134;14.376;2023-11-21T11:46:05;4.8;;;2.1;;
83646;SDS011;73609;50.134;14.376;2023-11-21T11:48:05;4.1;;;2.0;;
83646;SDS011;73609;50.134;14.376;2023-11-21T11:52:36;5.9;;;2.1;;
83646;SDS011;73609;50.134;14.376;2023-11-21T11:54:05;4.5;;;2.1;;
83646;SDS011;73609;50.134;14.376;2023-11-21T11:56:22;5.1;;;2.3;;
83646;SDS011;73609;50.134;14.376;2023-11-21T11:58:05;4.5;;;2.0;;
83646;SDS011;73609;50.134;14.376;2023-11-21T12:02:05;5.7;;;2.6;;
83646;SDS011;73609;50.134;14.376;2023-11-21T12:06:05;5.0;;;2.3;;
83646;SDS011;73609;50.134;14.376;2023-11-21T12:08:06;5.2;;;2.5;;
83646;SDS011;73609;50.134;14.376;2023-11-21T12:10:05;5.8;;;3.2;;
83646;SDS011;73609;50.134;14.376;2023-11-21T12:12:05;6.9;;;2.9;;
83646;SDS011;73609;50.134;14.376;2023-11-21T12:14:05;5.7;;;2.9;;
83646;SDS011;73609;50.134;14.376;2023-11-21T12:16:05;4.7;;;2.6;;
83646;SDS011;73609;50.134;14.376;2023-11-21T12:18:05;6.3;;;3.0;;
83646;SDS011;73609;50.134;14.376;2023-11-21T12:20:05;8.8;;;3.2;;
83646;SDS011;73609;50.134;14.376;2023-11-21T12:22:05;5.3;;;3.1;;
83646;SDS011;73609;50.134;14.376;2023-11-21T12:24:05;7.3;;;3.4;;
83646;SDS011;73609;50.134;14.376;2023-11-21T12:26:05;6.6;;;2.9;;
83646;SDS011;73609;50.134;14.376;2023-11-21T12:28:05;6.4;;;2.8;;